Etusivu
METAR-TAF:

METAR-TAF

Lentoasemat :

Keene, New Hampshire, Yhdysvallat

Leveyspiiri: 42-54N, Pituuspiiri: 072-16W, korkeus merenpinnasta: 149 m

Tämänhetkinen sää

Tämä raportti tehtiin 27 minuuttia sitten, kello 18.28 UTC
Tuuli 4 kn lännestä/luoteesta
Lämpötila -1°C
Kosteus 59%
Ilmanpaine 1028 hPa
Näkyvyys: 16.1 km
Hajonneita pilviä 2800 ft:n korkeudessa
Hajonneita pilviä 8500 ft:n korkeudessa
Pilvistä 10000 ft:n korkeudessa

METAR: KEEN 141828Z AUTO 29004KT 10SM BKN028 BKN085 OVC100 M01/M08 A3036 RMK AO2 FZRANO $

Aika: 13:55 (18:55 UTC)


TAF: puuttuu

Säähavainnot ja -ennusteet yli 4000 lentoasemalta (METAR- ja TAF-raportit).

Käytössä olevat sääasemat on merkitty karttaan keltaisilla ja punaisilla pisteillä.

Aseta hiiri pisteen päälle nähdäksesi sääaseman nimen.

Klikkaa sitten nähdäksesi säähavainnot ja -ennusteet.

Kartan vaihtaminen: klikkaa mustalla rastilla varustettuja vihreitä pisteitä, niin voit zoomata sisään; viivalla varustettua vihreää pistettä, niin voit zoomata ulos tai vihreitä nuolia, niin pääset viereisille kartoille.


METAR-TAF: